• Join FlightAware (Why Join?)
  • Login
  • US Flag 
02:19PM EST


 

Airport Tracker/Info


-or-


 

Live Flight TrackerFlight Track Log ✈ LOG6856 ✈ 30-Aug-2014 ✈ EGPR / BRR - EGPF / GLA

Flight Track Log - Related Links

Times and Time Zones

All times are in EDT time to prevent confusion due to time zone crossing. See the LOG6856 flight status page for this flight to view local times or setup timezone preferences in your user account.

Time Position Orientation Groundspeed Altitude Reporting Facility
EDT Latitude Longitude Course Direction KTS MPH feet Rate Location/Type
10:47AM 56.8380 -6.8671 123° Southeast 174 200 7,200  Level FlightAware UK
10:47AM 56.8307 -6.8468 123° Southeast 174 200 7,300 333 Climbing FlightAware UK
10:47AM 56.8232 -6.8276 125° Southeast 174 200 7,400 333 Climbing FlightAware UK
10:48AM 56.8153 -6.8071 125° Southeast 174 200 7,500 333 Climbing FlightAware UK
10:48AM 56.8061 -6.7854 128° Southeast 174 200 7,600 167 Climbing FlightAware UK
10:48AM 56.7972 -6.7636 127° Southeast 174 200 7,600  Level FlightAware UK
10:48AM 56.7882 -6.7410 126° Southeast 174 200 7,600 -333 Level FlightAware UK
10:49AM 56.7793 -6.7177 125° Southeast 174 200 7,400 -167 Descending FlightAware UK
10:49AM 56.7704 -6.6952 126° Southeast 174 200 7,500 167 Climbing FlightAware UK
10:49AM 56.7614 -6.6722 125° Southeast 174 200 7,500  Level FlightAware UK
10:50AM 56.7521 -6.6497 127° Southeast 174 200 7,500  Level FlightAware UK
10:50AM 56.7430 -6.6274 127° Southeast 174 200 7,500  Level FlightAware UK
10:50AM 56.7338 -6.6054 127° Southeast 174 200 7,500  Level FlightAware UK
10:51AM 56.7249 -6.5834 127° Southeast 174 200 7,500  Level FlightAware UK
10:51AM 56.7163 -6.5613 125° Southeast 174 200 7,500  Level FlightAware UK
10:51AM 56.7082 -6.5383 123° Southeast 174 200 7,500  Level FlightAware UK
10:51AM 56.7002 -6.5155 123° Southeast 174 200 7,500  Level FlightAware UK
10:52AM 56.6922 -6.4926 122° Southeast 174 200 7,500 333 Level FlightAware UK
10:52AM 56.6841 -6.4700 123° Southeast 174 200 7,700 167 Climbing FlightAware UK
10:52AM 56.6758 -6.4475 124° Southeast 174 200 7,600 -167 Descending FlightAware UK
10:53AM 56.6675 -6.4251 124° Southeast 174 200 7,600  Level FlightAware UK
10:53AM 56.6588 -6.4029 126° Southeast 174 200 7,600 -333 Level FlightAware UK
10:53AM 56.6498 -6.3809 126° Southeast 174 200 7,400 -167 Descending FlightAware UK
10:54AM 56.6411 -6.3585 125° Southeast 174 200 7,500 167 Climbing FlightAware UK
10:54AM 56.6326 -6.3358 124° Southeast 174 200 7,500  Level FlightAware UK
10:54AM 56.6246 -6.3129 123° Southeast 174 200 7,500  Level FlightAware UK
10:54AM 56.6168 -6.2897 121° Southeast 174 200 7,500 167 Level FlightAware UK
10:55AM 56.6091 -6.2665 121° Southeast 174 200 7,600 167 Climbing FlightAware UK
10:55AM 56.6013 -6.2435 122° Southeast 174 200 7,600  Level FlightAware UK
10:55AM 56.5928 -6.2210 124° Southeast 174 200 7,600  Level FlightAware UK
10:56AM 56.5844 -6.1987 125° Southeast 174 200 7,600  Level FlightAware UK
10:56AM 56.5760 -6.1765 124° Southeast 174 200 7,600  Level FlightAware UK
10:56AM 56.5681 -6.1536 122° Southeast 174 200 7,600  Level FlightAware UK
10:57AM 56.5593 -6.1315 126° Southeast 174 200 7,600  Level FlightAware UK
10:57AM 56.5507 -6.1089 125° Southeast 174 200 7,600  Level FlightAware UK
10:57AM 56.5418 -6.0862 125° Southeast 174 200 7,600  Level FlightAware UK
10:57AM 56.5332 -6.0634 124° Southeast 174 200 7,600 -167 Level FlightAware UK
10:58AM 56.5245 -6.0406 125° Southeast 174 200 7,500  Descending FlightAware UK
10:58AM 56.5159 -6.0179 124° Southeast 174 200 7,600 167 Climbing FlightAware UK
10:58AM 56.5075 -5.9951 124° Southeast 174 200 7,600  Level FlightAware UK
10:59AM 56.4993 -5.9723 123° Southeast 174 200 7,600  Level FlightAware UK
10:59AM 56.4909 -5.9495 124° Southeast 174 200 7,600  Level FlightAware UK
10:59AM 56.4828 -5.9266 123° Southeast 174 200 7,600  Level FlightAware UK
11:00AM 56.4739 -5.9047 126° Southeast 174 200 7,600  Level FlightAware UK
11:00AM 56.4650 -5.8829 126° Southeast 174 200 7,600  Level FlightAware UK
11:00AM 56.4563 -5.8605 125° Southeast 174 200 7,600  Level FlightAware UK
11:00AM 56.4471 -5.8380 126° Southeast 174 200 7,600  Level FlightAware UK
11:01AM 56.4380 -5.8145 125° Southeast 174 200 7,600  Level FlightAware UK
11:01AM 56.4294 -5.7918 125° Southeast 174 200 7,600 -167 Level FlightAware UK
11:01AM 56.4209 -5.7698 125° Southeast 174 200 7,500  Descending FlightAware UK
11:02AM 56.4122 -5.7480 126° Southeast 174 200 7,600 167 Climbing FlightAware UK
11:02AM 56.4031 -5.7268 128° Southeast 174 200 7,600  Level FlightAware UK
11:02AM 56.3939 -5.7055 128° Southeast 174 200 7,600 -333 Level FlightAware UK
11:03AM 56.3847 -5.6836 127° Southeast 174 200 7,400 -167 Descending FlightAware UK
11:03AM 56.3758 -5.6615 126° Southeast 174 200 7,500 333 Climbing FlightAware UK
11:03AM 56.3675 -5.6397 124° Southeast 174 200 7,600 167 Climbing FlightAware UK
11:03AM 56.3596 -5.6178 123° Southeast 174 200 7,600  Level FlightAware UK
11:04AM 56.3511 -5.5957 125° Southeast 174 200 7,600  Level FlightAware UK
11:04AM 56.3424 -5.5733 125° Southeast 174 200 7,600 -333 Level FlightAware UK
11:04AM 56.3339 -5.5510 125° Southeast 174 200 7,400 -167 Descending FlightAware UK
11:05AM 56.3257 -5.5286 123° Southeast 174 200 7,500 333 Climbing FlightAware UK
11:05AM 56.3175 -5.5061 123° Southeast 174 200 7,600 -167 Climbing FlightAware UK
11:05AM 56.3091 -5.4836 124° Southeast 174 200 7,400 -167 Descending FlightAware UK
11:06AM 56.3004 -5.4609 125° Southeast 174 200 7,500 333 Climbing FlightAware UK
11:06AM 56.2918 -5.4377 124° Southeast 174 200 7,600 167 Climbing FlightAware UK
11:06AM 56.2832 -5.4143 123° Southeast 174 200 7,600  Level FlightAware UK
11:06AM 56.2745 -5.3917 125° Southeast 174 200 7,600  Level FlightAware UK
11:07AM 56.2659 -5.3686 124° Southeast 174 200 7,600  Level FlightAware UK
11:07AM 56.2572 -5.3456 124° Southeast 174 200 7,600 -167 Level FlightAware UK
11:07AM 56.2486 -5.3224 124° Southeast 174 200 7,500  Descending FlightAware UK
11:08AM 56.2403 -5.2990 122° Southeast 174 200 7,600 167 Climbing FlightAware UK
11:08AM 56.2321 -5.2756 122° Southeast 174 200 7,600  Level FlightAware UK
11:08AM 56.2240 -5.2519 122° Southeast 174 200 7,600 -167 Level FlightAware UK
11:09AM 56.2154 -5.2286 124° Southeast 174 200 7,500 -167 Descending FlightAware UK
11:09AM 56.2064 -5.2057 125° Southeast 174 200 7,500  Level FlightAware UK
11:09AM 56.1978 -5.1837 125° Southeast 174 200 7,500 167 Level FlightAware UK
11:09AM 56.1891 -5.1616 125° Southeast 174 200 7,600 167 Climbing FlightAware UK
11:10AM 56.1801 -5.1387 125° Southeast 174 200 7,600  Level FlightAware UK
11:10AM 56.1712 -5.1155 125° Southeast 174 200 7,600  Level FlightAware UK
11:10AM 56.1621 -5.0932 126° Southeast 174 200 7,600 -333 Level FlightAware UK
11:11AM 56.1531 -5.0711 126° Southeast 174 200 7,400 -500 Descending FlightAware UK
11:11AM 56.1445 -5.0492 125° Southeast 174 200 7,300 -333 Descending FlightAware UK
11:11AM 56.1390 -5.0230 111° Southeast 174 200 7,200 -333 Descending FlightAware UK
11:12AM 56.1336 -4.9962 110° East 174 200 7,100 -500 Descending FlightAware UK
11:12AM 56.1286 -4.9684 108° East 174 200 6,900 -500 Descending FlightAware UK
11:12AM 56.1231 -4.9406 110° East 174 200 6,800 -500 Descending FlightAware UK
11:12AM 56.1163 -4.9137 115° Southeast 174 200 6,600 -667 Descending FlightAware UK
11:13AM 56.1106 -4.8861 110° East 174 200 6,400 -667 Descending FlightAware UK
11:13AM 56.1050 -4.8588 110° East 174 200 6,200 -667 Descending FlightAware UK
11:13AM 56.0989 -4.8316 112° Southeast 174 200 6,000 -833 Descending FlightAware UK
11:14AM 56.0929 -4.8042 111° Southeast 174 200 5,700 -667 Descending FlightAware UK
11:14AM 56.0869 -4.7763 111° Southeast 174 200 5,600 -500 Descending FlightAware UK
11:14AM 56.0811 -4.7481 110° East 174 200 5,400 -667 Descending FlightAware UK
11:15AM 56.0758 -4.7200 109° East 174 200 5,200 -667 Descending FlightAware UK
11:15AM 56.0704 -4.6926 109° East 174 200 5,000  Descending FlightAware UK
11:15AM 56.0652 -4.6671 110° East 174 200 5,200  Climbing FlightAware UK
11:15AM 56.0525 -4.6518 146° Southeast 174 200 5,000 -667 Descending FlightAware UK
11:16AM 56.0396 -4.6357 145° Southeast 174 200 4,800 -667 Descending FlightAware UK
11:16AM 56.0267 -4.6207 147° Southeast 174 200 4,600 -1,000 Descending FlightAware UK
11:16AM 56.0139 -4.6056 147° Southeast 174 200 4,200 -833 Descending FlightAware UK
11:17AM 56.0047 -4.5834 126° Southeast 174 200 4,100 -500 Descending FlightAware UK
11:17AM 55.9999 -4.5573 108° East 174 200 3,900 -667 Descending FlightAware UK
11:17AM 55.9955 -4.5306 106° East 174 200 3,700 -833 Descending FlightAware UK
11:18AM 55.9921 -4.5029 103° East 174 200 3,400 -667 Descending FlightAware UK
11:18AM 55.9898 -4.4754 98° East 174 200 3,300 -667 Descending FlightAware UK
11:18AM 55.9847 -4.4496 110° East 174 200 3,000 -833 Descending FlightAware UK
11:18AM 55.9760 -4.4268 124° Southeast 174 200 2,800 -833 Descending FlightAware UK
11:19AM 55.9669 -4.4039 125° Southeast 174 200 2,500 -1,000 Descending FlightAware UK
11:19AM 55.9573 -4.3826 129° Southeast 174 200 2,200 -1,000 Descending FlightAware UK
11:19AM 55.9453 -4.3703 150° Southeast 174 200 1,900 -889 Descending FlightAware UK
11:20AM 55.9215 -4.3599 166° South 174 200 1,400 -889 Descending FlightAware UK
11:20AM 55.9117 -4.3615 185° South 174 200 1,100 -667 Descending FlightAware UK
11:21AM 55.9051 -4.3711 219° Southwest 174 200 1,000 -333 Descending FlightAware UK